Time;durP1;ratioP1;P1;durP2;ratioP2;P2;SDS_P1;SDS_P2;PMS_P1;PMS_P2;Temp;Humidity;BMP_temperature;BMP_pressure;BME280_temperature;BME280_humidity;BME280_pressure;Samples;Min_cycle;Max_cycle;Signal;HPM_P1;HPM_P2
2021/11/30 00:01:57;;;;;;;4.92;4.17;;;;;;;2.39;68.47;97244.45;1637701;86;21535;-59
2021/11/30 00:04:28;;;;;;;4.00;3.60;;;;;;;2.42;69.09;97258.12;1599740;88;21557;-60
2021/11/30 00:06:53;;;;;;;4.42;4.03;;;;;;;2.53;67.94;97244.64;1598084;87;21805;-61
2021/11/30 00:12:09;;;;;;;6.67;4.05;;;;;;;2.50;68.65;97261.64;1599482;88;21839;-58
2021/11/30 00:14:37;;;;;;;4.90;3.72;;;;;;;2.47;69.29;97268.29;1575289;88;21056;-58
2021/11/30 00:17:04;;;;;;;;;;;;;;;2.40;69.54;97276.80;1641851;86;21463;-58
2021/11/30 00:19:32;;;;;;;3.70;3.37;;;;;;;2.44;69.51;97288.70;1638994;86;21892;-59
2021/11/30 00:21:59;;;;;;;5.70;3.45;;;;;;;2.50;68.93;97283.69;1599490;87;21542;-60
2021/11/30 00:24:29;;;;;;;3.65;3.35;;;;;;;2.58;68.54;97299.75;1636133;87;21912;-62
2021/11/30 00:26:55;;;;;;;4.08;3.58;;;;;;;2.58;68.07;97285.48;1638447;86;21640;-59
2021/11/30 00:29:22;;;;;;;3.95;3.45;;;;;;;2.50;68.59;97305.27;1599357;88;21534;-59
2021/11/30 00:31:49;;;;;;;3.93;3.50;;;;;;;2.49;68.28;97285.91;1637733;87;21493;-60
2021/11/30 00:34:16;;;;;;;4.23;3.73;;;;;;;2.41;68.57;97275.91;1599543;87;21625;-59
2021/11/30 00:36:43;;;;;;;3.40;3.03;;;;;;;2.40;69.27;97288.48;1638939;86;21820;-59
2021/11/30 00:39:10;;;;;;;3.70;3.40;;;;;;;2.44;70.16;97280.92;1591400;87;22033;-59
2021/11/30 00:41:39;;;;;;;4.40;4.00;;;;;;;2.52;70.22;97289.20;1637761;86;21533;-59
2021/11/30 00:44:06;;;;;;;4.72;4.22;;;;;;;2.48;70.52;97290.70;1599194;87;21577;-60
2021/11/30 00:46:35;;;;;;;4.78;4.35;;;;;;;2.40;71.54;97296.72;1599440;88;21108;-59
2021/11/30 00:49:03;;;;;;;5.65;3.92;;;;;;;2.32;72.15;97303.10;1599391;88;22087;-63
2021/11/30 00:51:33;;;;;;;4.92;3.85;;;;;;;2.33;72.49;97303.94;1599318;87;21448;-59
2021/11/30 00:54:00;;;;;;;4.10;3.70;;;;;;;2.49;72.16;97305.37;1639010;87;21542;-59
2021/11/30 00:56:27;;;;;;;3.90;3.60;;;;;;;2.52;71.41;97310.39;1599325;89;21530;-59
2021/11/30 00:58:54;;;;;;;5.05;3.75;;;;;;;2.44;72.17;97313.34;1637492;85;21651;-59
2021/11/30 01:01:21;;;;;;;4.00;3.60;;;;;;;2.35;72.44;97322.86;1601343;87;22016;-59
2021/11/30 01:03:48;;;;;;;4.10;3.70;;;;;;;2.36;72.50;97323.25;1638369;86;21520;-59
2021/11/30 01:06:15;;;;;;;4.25;3.47;;;;;;;2.44;72.55;97324.19;1599734;88;21335;-59
2021/11/30 01:08:42;;;;;;;4.33;3.92;;;;;;;2.39;72.59;97336.06;1638563;86;21519;-59
2021/11/30 01:11:09;;;;;;;4.90;3.52;;;;;;;2.29;73.11;97330.46;1599714;87;21475;-59
2021/11/30 01:13:42;;;;;;;6.12;3.70;;;;;;;2.28;73.21;97330.53;1638658;86;22025;-59
2021/11/30 01:16:09;;;;;;;4.72;3.45;;;;;;;2.28;73.41;97324.91;1599903;88;21443;-59
2021/11/30 01:18:37;;;;;;;4.20;3.80;;;;;;;2.44;72.63;97320.30;1635152;86;21455;-60
2021/11/30 01:21:04;;;;;;;4.22;3.75;;;;;;;2.44;72.19;97317.70;1599578;88;21468;-59
2021/11/30 01:23:31;;;;;;;4.47;3.92;;;;;;;2.36;72.60;97326.31;1638564;86;21613;-60
2021/11/30 01:25:59;;;;;;;4.10;3.70;;;;;;;2.31;72.21;97323.91;1593939;89;21789;-59
2021/11/30 01:28:26;;;;;;;3.80;3.47;;;;;;;2.30;72.54;97321.78;1638717;87;21597;-59
2021/11/30 01:30:53;;;;;;;4.00;3.60;;;;;;;2.47;72.24;97322.30;1599645;87;21567;-59
2021/11/30 01:33:20;;;;;;;4.17;3.70;;;;;;;2.46;72.06;97336.16;1639248;86;21492;-59
2021/11/30 01:35:48;;;;;;;5.75;3.45;;;;;;;2.36;72.57;97327.14;1599462;87;21598;-59
2021/11/30 01:38:15;;;;;;;4.72;3.65;;;;;;;2.26;73.05;97320.25;1595382;89;21698;-59
2021/11/30 01:40:42;;;;;;;4.30;3.87;;;;;;;2.27;73.47;97327.11;1632981;85;21483;-59
2021/11/30 01:43:15;;;;;;;3.80;3.50;;;;;;;2.43;72.83;97332.44;1634039;87;21478;-59
2021/11/30 01:50:56;;;;;;;6.95;4.25;;;;;;;2.18;75.19;97347.44;1598377;89;21957;-60
2021/11/30 01:53:23;;;;;;;4.20;3.80;;;;;;;2.25;76.20;97348.84;1599313;87;21491;-60
2021/11/30 01:55:50;;;;;;;4.42;3.87;;;;;;;2.28;76.53;97355.16;1639566;86;21633;-59
2021/11/30 01:58:17;;;;;;;4.78;4.25;;;;;;;2.14;76.99;97355.80;1599518;88;21570;-59
2021/11/30 02:00:45;;;;;;;4.65;4.10;;;;;;;2.04;77.86;97359.27;1639256;86;21696;-59
2021/11/30 02:03:13;;;;;;;4.47;4.08;;;;;;;2.06;78.50;97363.09;1599869;87;21798;-59
2021/11/30 02:05:41;;;;;;;4.87;4.43;;;;;;;2.13;78.52;97350.25;1639077;86;20974;-59
2021/11/30 02:08:09;;;;;;;6.17;4.30;;;;;;;2.04;78.94;97358.44;1599448;88;21712;-61
2021/11/30 02:10:37;;;;;;;4.72;4.30;;;;;;;2.02;79.11;97356.37;1634915;86;21112;-59
2021/11/30 02:13:05;;;;;;;4.58;4.17;;;;;;;1.89;80.06;97362.09;1599562;88;21675;-59
2021/11/30 02:15:37;;;;;;;4.30;3.80;;;;;;;1.95;80.43;97360.97;1639429;86;21443;-60
2021/11/30 02:18:04;;;;;;;5.53;4.30;;;;;;;1.99;78.84;97362.52;1638545;86;21510;-59
2021/11/30 02:20:31;;;;;;;5.65;4.05;;;;;;;2.06;78.14;97361.34;1635938;86;20971;-59
2021/11/30 02:22:59;;;;;;;5.90;3.98;;;;;;;1.95;78.37;97372.64;1631718;87;21644;-60
2021/11/30 02:25:26;;;;;;;4.97;4.53;;;;;;;1.92;79.48;97367.14;1595642;87;21662;-59
2021/11/30 02:27:53;;;;;;;4.28;3.87;;;;;;;2.12;78.09;97370.59;1573083;89;21597;-59
2021/11/30 02:30:20;;;;;;;5.20;4.37;;;;;;;2.08;77.72;97375.06;1637225;86;21490;-59
2021/11/30 02:32:49;;;;;;;5.08;4.42;;;;;;;2.07;77.28;97376.42;1598884;87;21630;-59
2021/11/30 02:35:16;;;;;;;4.25;3.85;;;;;;;1.97;78.04;97383.77;1639344;87;21585;-60
2021/11/30 02:37:48;;;;;;;4.87;4.40;;;;;;;2.11;77.37;97369.75;1598803;88;21478;-60
2021/11/30 02:40:12;;;;;;;4.53;4.12;;;;;;;2.10;76.24;97370.66;1635181;85;22025;-59
2021/11/30 02:42:39;;;;;;;4.53;4.12;;;;;;;2.05;75.76;97372.60;1599525;88;21620;-60
2021/11/30 02:45:08;;;;;;;6.50;3.65;;;;;;;1.98;76.18;97358.26;1639350;86;21664;-60
2021/11/30 02:47:34;;;;;;;3.83;3.52;;;;;;;2.06;76.29;97370.87;1639360;86;21476;-60
2021/11/30 02:50:02;;;;;;;4.35;3.65;;;;;;;2.20;75.22;97370.23;1639265;86;21494;-59
2021/11/30 02:52:30;;;;;;;5.35;4.30;;;;;;;2.17;75.46;97384.20;1636145;86;22026;-60
2021/11/30 02:54:57;;;;;;;4.80;3.63;;;;;;;2.12;75.31;97386.98;1635067;86;21502;-60
2021/11/30 02:57:24;;;;;;;5.35;4.08;;;;;;;2.05;76.14;97380.38;1639530;87;21447;-60
2021/11/30 02:59:53;;;;;;;4.28;3.95;;;;;;;2.16;76.26;97388.15;1639241;86;21649;-59
2021/11/30 03:02:24;;;;;;;3.92;3.62;;;;;;;2.13;76.29;97404.23;1599330;89;21629;-60
2021/11/30 03:04:58;;;;;;;5.65;4.45;;;;;;;2.03;76.60;97400.34;1599020;88;23723;-60
2021/11/30 03:07:37;;;;;;;4.22;3.83;;;;;;;1.97;77.05;97394.61;1637161;86;21698;-60
2021/11/30 03:10:16;;;;;;;4.22;3.83;;;;;;;1.98;77.46;97382.88;1630589;86;21510;-60
2021/11/30 03:12:44;;;;;;;4.40;4.00;;;;;;;2.11;75.89;97372.34;1635985;87;21627;-61
2021/11/30 03:15:16;;;;;;;;;;;;;;;2.02;76.48;97377.11;1601883;87;21062;-60
2021/11/30 03:17:44;;;;;;;6.58;4.15;;;;;;;2.03;75.74;97382.66;1598766;87;21815;-60
2021/11/30 03:20:12;;;;;;;4.25;3.85;;;;;;;1.95;75.68;97370.05;1599093;87;25532;-60
2021/11/30 03:22:41;;;;;;;4.22;3.80;;;;;;;2.07;74.96;97379.02;1598323;87;21664;-60
2021/11/30 03:25:10;;;;;;;6.03;4.58;;;;;;;2.20;73.77;97388.39;1599099;88;21531;-60
2021/11/30 03:27:37;;;;;;;5.00;4.50;;;;;;;2.12;73.69;97396.52;1597832;89;21657;-59
2021/11/30 03:30:06;;;;;;;6.08;4.58;;;;;;;2.09;72.96;97408.30;1598834;87;21890;-60
2021/11/30 03:35:21;;;;;;;4.37;3.58;;;;;;;2.14;72.55;97408.95;1598961;87;21515;-60
2021/11/30 03:37:49;;;;;;;4.47;3.92;;;;;;;2.23;72.19;97414.19;1598623;88;21547;-61
2021/11/30 03:40:16;;;;;;;4.40;3.80;;;;;;;2.20;71.80;97425.98;1631013;86;21635;-61
2021/11/30 03:42:43;;;;;;;4.80;4.33;;;;;;;2.14;72.22;97402.47;1638408;86;21649;-60
2021/11/30 03:45:10;;;;;;;5.67;4.30;;;;;;;2.16;72.28;97423.15;1599386;87;21561;-60
2021/11/30 03:47:37;;;;;;;5.37;4.10;;;;;;;2.15;72.20;97413.23;1636737;86;21663;-60
2021/11/30 03:50:05;;;;;;;4.70;4.30;;;;;;;2.26;71.80;97425.27;1630852;86;21502;-60
2021/11/30 03:52:33;;;;;;;5.40;4.60;;;;;;;2.29;70.78;97412.15;1634643;85;21493;-60
2021/11/30 03:55:00;;;;;;;4.55;3.85;;;;;;;2.20;71.19;97415.61;1600161;88;21787;-59
2021/11/30 03:57:27;;;;;;;4.10;3.80;;;;;;;2.17;70.48;97418.33;1636816;85;21582;-59
2021/11/30 03:59:54;;;;;;;4.45;4.00;;;;;;;2.16;70.34;97414.91;1644023;85;21535;-60
2021/11/30 04:02:22;;;;;;;4.83;3.92;;;;;;;2.14;70.38;97434.88;1599558;89;21494;-60
2021/11/30 04:04:49;;;;;;;5.33;4.28;;;;;;;2.26;70.05;97430.89;1637769;86;21583;-60
2021/11/30 04:07:16;;;;;;;5.60;5.00;;;;;;;2.29;70.03;97443.27;1638741;86;21784;-59
2021/11/30 04:09:45;;;;;;;5.00;4.47;;;;;;;2.29;69.63;97444.56;1632613;85;21752;-59
2021/11/30 04:12:12;;;;;;;5.47;4.28;;;;;;;2.24;69.87;97464.70;1636115;86;21491;-59
2021/11/30 04:14:39;;;;;;;4.25;3.85;;;;;;;2.22;69.51;97447.03;1599365;88;21609;-59
2021/11/30 04:17:07;;;;;;;4.70;4.20;;;;;;;2.19;68.84;97456.73;1599503;88;21565;-60
2021/11/30 04:19:36;;;;;;;4.20;3.80;;;;;;;2.20;68.09;97464.41;1637035;86;21038;-60
2021/11/30 04:22:03;;;;;;;4.42;4.03;;;;;;;2.21;68.77;97475.19;1596973;89;21435;-59
2021/11/30 04:24:30;;;;;;;5.08;4.12;;;;;;;2.37;68.80;97490.91;1638414;86;21547;-59
2021/11/30 04:26:57;;;;;;;4.42;4.03;;;;;;;2.33;68.36;97494.08;1639317;87;21450;-59
2021/11/30 04:29:24;;;;;;;4.60;4.20;;;;;;;2.27;68.69;97476.67;1599644;87;21557;-60
2021/11/30 04:31:52;;;;;;;4.25;3.85;;;;;;;2.29;67.92;97483.92;1601723;87;21802;-61
2021/11/30 04:34:19;;;;;;;4.53;4.12;;;;;;;2.25;68.13;97481.92;1595020;88;21638;-60
2021/11/30 04:36:46;;;;;;;4.97;4.23;;;;;;;2.22;67.91;97491.11;1592969;88;21053;-60
2021/11/30 04:39:13;;;;;;;4.62;4.22;;;;;;;2.22;67.43;97495.00;1592444;87;22228;-60
2021/11/30 04:41:42;;;;;;;4.33;3.92;;;;;;;2.17;68.28;97486.61;1591266;87;21030;-61
2021/11/30 04:44:10;;;;;;;4.35;3.95;;;;;;;2.19;67.48;97489.14;1591604;89;21887;-60
2021/11/30 04:46:42;;;;;;;4.37;3.98;;;;;;;2.15;68.30;97500.09;1590899;87;21589;-60
2021/11/30 04:49:54;;;;;;;4.37;3.98;;;;;;;2.13;68.57;97491.55;1591659;89;21548;-60
2021/11/30 04:51:40;;;;;;;3.98;3.67;;;;;;;2.17;68.38;97501.30;1573119;89;21087;-60
2021/11/30 04:54:07;;;;;;;4.17;3.50;;;;;;;2.37;66.89;97519.89;1591903;89;21028;-60
2021/11/30 04:56:35;;;;;;;4.37;3.98;;;;;;;2.33;66.30;97505.75;1591036;88;22009;-61
2021/11/30 04:59:02;;;;;;;3.37;3.08;;;;;;;2.30;66.34;97503.78;1599493;89;21607;-61
2021/11/30 05:01:31;;;;;;;3.72;3.33;;;;;;;2.24;66.38;97519.15;1639168;86;20970;-61
2021/11/30 05:03:59;;;;;;;5.07;3.77;;;;;;;2.14;66.84;97516.55;1599586;87;21487;-59
2021/11/30 05:06:26;;;;;;;7.45;3.70;;;;;;;2.15;66.94;97494.91;1599734;87;21455;-58
2021/11/30 05:08:54;;;;;;;6.95;3.60;;;;;;;2.16;66.53;97503.05;1593707;89;22182;-60
2021/11/30 05:11:21;;;;;;;;;;;;;;;2.19;66.90;97515.91;1617894;88;21239;-59
2021/11/30 05:13:48;;;;;;;5.47;2.90;;;;;;;2.18;66.38;97509.02;1614038;87;20441;-60
2021/11/30 05:16:15;;;;;;;3.47;3.17;;;;;;;2.11;66.77;97517.95;1615432;87;21504;-59
2021/11/30 05:18:42;;;;;;;4.58;2.98;;;;;;;2.10;66.39;97532.68;1583322;88;26784;-59
2021/11/30 05:21:10;;;;;;;3.85;3.50;;;;;;;2.13;66.69;97526.55;1614432;88;21726;-59
2021/11/30 05:23:40;;;;;;;3.42;3.12;;;;;;;2.18;66.71;97528.47;1614246;87;21539;-59
2021/11/30 05:26:08;;;;;;;3.55;3.17;;;;;;;2.20;66.46;97538.31;1615540;87;21082;-59
2021/11/30 05:28:37;;;;;;;3.62;3.22;;;;;;;2.16;66.83;97533.34;1613920;87;21444;-62
2021/11/30 05:31:05;;;;;;;4.42;2.90;;;;;;;2.13;66.64;97536.91;1616449;86;21642;-59
2021/11/30 05:33:33;;;;;;;3.10;2.85;;;;;;;2.14;66.72;97552.38;1615050;88;21569;-60
2021/11/30 05:36:05;;;;;;;;;;;;;;;2.16;66.43;97548.43;1616773;88;21448;-59
2021/11/30 05:38:30;;;;;;;6.10;2.87;;;;;;;2.13;66.50;97554.59;1610952;87;20436;-59
2021/11/30 05:40:58;;;;;;;3.60;3.30;;;;;;;2.12;66.83;97563.27;1612919;87;21560;-59
2021/11/30 05:43:25;;;;;;;3.15;2.90;;;;;;;2.11;66.87;97577.16;1614661;88;21682;-59
2021/11/30 05:45:52;;;;;;;3.87;3.05;;;;;;;2.18;66.31;97592.45;1615400;87;21851;-58
2021/11/30 05:48:20;;;;;;;3.10;2.80;;;;;;;2.19;66.21;97593.69;1614379;87;28550;-59
2021/11/30 05:50:47;;;;;;;4.65;3.45;;;;;;;2.17;66.14;97593.34;1613903;87;21536;-59
2021/11/30 05:53:14;;;;;;;3.98;2.33;;;;;;;2.11;66.66;97607.41;1614977;87;21492;-60
2021/11/30 05:55:44;;;;;;;4.00;2.62;;;;;;;2.13;65.65;97600.44;1614958;87;21472;-60
2021/11/30 05:58:16;;;;;;;3.02;2.72;;;;;;;2.11;66.33;97608.27;1616282;86;21773;-60
2021/11/30 06:00:45;;;;;;;2.70;2.50;;;;;;;2.13;66.73;97611.64;1614308;87;21644;-61
2021/11/30 06:03:31;;;;;;;2.60;2.40;;;;;;;2.09;66.20;97619.16;1612222;87;26234;-60
2021/11/30 06:05:56;;;;;;;2.22;2.02;;;;;;;2.14;65.87;97607.28;1611650;87;21579;-59
2021/11/30 06:08:23;;;;;;;2.72;2.40;;;;;;;2.16;65.47;97612.41;1608591;88;21421;-59
2021/11/30 06:10:50;;;;;;;2.47;2.10;;;;;;;2.12;64.73;97622.06;1613921;87;22049;-60
2021/11/30 06:13:18;;;;;;;2.22;1.87;;;;;;;2.09;65.02;97632.55;1615261;87;21524;-60
2021/11/30 06:15:46;;;;;;;3.83;2.22;;;;;;;2.09;64.88;97643.78;1616248;86;21607;-60
2021/11/30 06:18:13;;;;;;;2.10;1.92;;;;;;;2.11;64.41;97679.99;1614351;87;21106;-62
2021/11/30 06:20:40;;;;;;;2.72;2.10;;;;;;;2.16;63.93;97645.66;1616016;86;21452;-59
2021/11/30 06:23:07;;;;;;;1.85;1.70;;;;;;;2.09;63.88;97656.75;1618843;86;21822;-56
2021/11/30 06:25:35;;;;;;;2.08;1.87;;;;;;;2.14;63.87;97652.66;1620733;86;21460;-58
2021/11/30 06:28:03;;;;;;;3.80;1.60;;;;;;;2.09;63.98;97654.16;1619913;87;21560;-56
2021/11/30 06:30:31;;;;;;;1.82;1.50;;;;;;;2.07;64.04;97649.48;1618647;87;21522;-59
2021/11/30 06:32:58;;;;;;;2.00;1.70;;;;;;;2.04;63.74;97653.95;1623459;86;21692;-59
2021/11/30 06:35:25;;;;;;;1.60;1.50;;;;;;;2.05;63.58;97671.17;1631737;86;21805;-58
2021/11/30 06:37:52;;;;;;;3.02;1.20;;;;;;;2.03;63.41;97666.50;1629466;86;21612;-59
2021/11/30 06:40:20;;;;;;;0.95;0.95;;;;;;;2.05;62.81;97667.28;1627591;86;21569;-56
2021/11/30 06:42:47;;;;;;;1.75;1.30;;;;;;;2.06;61.04;97691.02;1627772;86;21664;-56
2021/11/30 06:45:14;;;;;;;1.10;1.00;;;;;;;1.99;61.60;97676.61;1630346;86;21643;-56
2021/11/30 06:47:43;;;;;;;1.20;1.05;;;;;;;1.92;62.04;97685.06;1630794;86;21562;-57
2021/11/30 06:50:10;;;;;;;1.22;1.12;;;;;;;1.95;62.16;97678.02;1627281;86;21450;-57
2021/11/30 06:52:38;;;;;;;1.07;0.98;;;;;;;1.94;61.79;97684.55;1605734;88;21487;-57
2021/11/30 06:55:07;;;;;;;1.42;0.98;;;;;;;1.97;61.33;97686.20;1605494;88;21554;-57
2021/11/30 06:57:35;;;;;;;1.00;0.90;;;;;;;1.97;60.93;97695.27;1605438;87;21642;-57
2021/11/30 07:00:07;;;;;;;1.00;1.00;;;;;;;2.00;61.09;97700.31;1605847;87;21748;-56
2021/11/30 07:02:36;;;;;;;3.15;0.90;;;;;;;1.99;60.19;97694.30;1605284;87;21645;-56
2021/11/30 07:13:15;;;;;;;1.57;1.22;;;;;;;2.00;60.50;97688.65;1604275;86;21820;-56
2021/11/30 07:15:33;;;;;;;2.27;0.98;;;;;;;1.99;60.81;97694.75;1608243;87;21463;-57
2021/11/30 07:18:01;;;;;;;1.45;1.17;;;;;;;2.02;60.36;97693.34;1615412;85;21626;-56
2021/11/30 07:20:28;;;;;;;2.72;1.75;;;;;;;2.06;59.79;97697.50;1619149;86;21535;-57
2021/11/30 07:22:57;;;;;;;1.10;1.00;;;;;;;2.05;60.18;97698.39;1615474;87;21539;-57
2021/11/30 07:25:25;;;;;;;1.10;1.00;;;;;;;2.08;60.01;97705.60;1617997;87;21703;-57
2021/11/30 07:27:53;;;;;;;1.15;0.90;;;;;;;2.12;60.05;97714.11;1612036;87;21595;-56
2021/11/30 07:30:21;;;;;;;1.22;1.00;;;;;;;2.08;59.55;97703.01;1598950;87;21599;-57
2021/11/30 07:32:48;;;;;;;1.30;1.02;;;;;;;2.05;60.05;97708.30;1599225;88;21546;-57
2021/11/30 07:35:15;;;;;;;1.50;1.40;;;;;;;2.10;60.36;97710.73;1599091;89;21539;-57
2021/11/30 07:37:43;;;;;;;1.30;1.20;;;;;;;2.16;60.83;97706.59;1607580;87;21575;-56
2021/11/30 07:40:11;;;;;;;1.60;1.47;;;;;;;2.20;60.50;97720.28;1607021;86;21485;-56
2021/11/30 07:42:39;;;;;;;1.70;1.50;;;;;;;2.16;61.58;97708.34;1604169;87;21611;-56
2021/11/30 07:45:07;;;;;;;1.35;1.25;;;;;;;2.16;61.40;97714.37;1602290;86;22073;-56
2021/11/30 07:47:34;;;;;;;1.45;1.35;;;;;;;2.14;61.66;97715.72;1645470;85;21408;-57
2021/11/30 07:50:02;;;;;;;2.33;1.50;;;;;;;2.18;61.30;97720.34;1602730;87;21802;-57
2021/11/30 07:52:31;;;;;;;1.62;1.52;;;;;;;2.15;62.15;97707.52;1640374;85;25760;-56
2021/11/30 07:55:04;;;;;;;1.80;1.67;;;;;;;2.20;61.32;97734.08;1641414;84;21506;-57
2021/11/30 07:57:27;;;;;;;2.12;1.90;;;;;;;2.20;61.69;97719.82;1595315;87;21731;-57
2021/11/30 07:59:53;;;;;;;2.95;2.10;;;;;;;2.22;62.33;97709.39;1577351;89;21578;-57
2021/11/30 08:02:20;;;;;;;3.57;2.27;;;;;;;2.24;62.50;97712.34;1637116;86;21807;-56
2021/11/30 08:04:49;;;;;;;2.52;2.22;;;;;;;2.29;62.91;97720.75;1606710;87;21547;-59
2021/11/30 08:07:17;;;;;;;2.25;1.90;;;;;;;2.33;62.52;97709.34;1639730;85;21626;-57
2021/11/30 08:09:45;;;;;;;2.77;2.30;;;;;;;2.32;63.06;97717.21;1599380;87;21140;-57
2021/11/30 08:12:13;;;;;;;3.37;2.85;;;;;;;2.27;63.57;97723.03;1641952;85;21679;-56
2021/11/30 08:14:40;;;;;;;3.35;2.50;;;;;;;2.25;63.38;97722.25;1642313;85;21578;-56
2021/11/30 08:17:13;;;;;;;3.67;2.97;;;;;;;2.28;63.96;97715.63;1650626;85;21660;-56
2021/11/30 08:19:36;;;;;;;3.50;3.20;;;;;;;2.29;63.71;97716.03;1648450;84;21483;-55
2021/11/30 08:22:03;;;;;;;4.12;3.70;;;;;;;2.31;63.09;97727.18;1603090;87;21591;-56
2021/11/30 08:24:30;;;;;;;3.55;3.25;;;;;;;2.34;62.59;97708.45;1646790;85;21546;-56
2021/11/30 08:26:57;;;;;;;4.07;3.43;;;;;;;2.31;62.72;97722.83;1608738;86;21779;-57
2021/11/30 08:29:25;;;;;;;3.17;2.87;;;;;;;2.32;63.00;97722.41;1647717;84;29116;-56
2021/11/30 08:31:52;;;;;;;3.92;3.22;;;;;;;2.31;62.32;97715.05;1646340;85;21569;-61
2021/11/30 08:34:19;;;;;;;3.47;2.52;;;;;;;2.30;62.09;97717.27;1651684;85;21676;-62
2021/11/30 08:36:46;;;;;;;3.00;2.62;;;;;;;2.37;62.07;97720.91;1648519;85;21532;-58
2021/11/30 08:40:08;;;;;;;3.60;3.30;;;;;;;2.40;62.29;97710.41;1787570;78;23209;-60
2021/11/30 08:42:36;;;;;;;3.33;3.02;;;;;;;2.36;61.74;97720.53;1704242;83;21450;-60
2021/11/30 08:45:05;;;;;;;5.10;3.37;;;;;;;2.41;61.69;97710.79;1701221;83;21884;-59
2021/11/30 08:47:33;;;;;;;3.77;3.20;;;;;;;2.44;61.41;97707.63;1708150;83;21465;-60
2021/11/30 08:50:00;;;;;;;3.62;3.17;;;;;;;2.45;61.49;97717.53;1707469;82;21514;-60
2021/11/30 08:52:28;;;;;;;4.25;3.70;;;;;;;2.44;61.30;97713.27;1733440;81;21482;-60
2021/11/30 08:54:56;;;;;;;3.70;3.37;;;;;;;2.42;61.51;97708.14;1736136;81;21659;-60
2021/11/30 08:57:24;;;;;;;4.37;3.55;;;;;;;2.44;61.69;97718.00;1740397;81;21411;-59
2021/11/30 08:59:52;;;;;;;3.62;3.33;;;;;;;2.45;61.68;97704.56;1706276;82;21584;-58
2021/11/30 09:02:20;;;;;;;4.58;3.37;;;;;;;2.45;61.78;97701.97;1705059;83;21519;-59
2021/11/30 09:04:48;;;;;;;4.10;3.37;;;;;;;2.42;62.01;97704.25;1705464;83;21522;-58
2021/11/30 09:07:16;;;;;;;3.47;3.17;;;;;;;2.40;62.15;97695.69;1712147;83;21546;-59
2021/11/30 09:09:45;;;;;;;5.10;3.45;;;;;;;2.46;61.80;97699.32;1707389;83;22118;-60
2021/11/30 09:12:12;;;;;;;3.40;3.10;;;;;;;2.43;61.89;97691.69;1696723;83;21555;-58
2021/11/30 09:14:39;;;;;;;5.20;3.57;;;;;;;2.44;61.52;97702.44;1705108;83;20997;-60
2021/11/30 09:17:06;;;;;;;4.53;4.10;;;;;;;2.37;61.77;97701.45;1708112;83;21383;-59
2021/11/30 09:19:33;;;;;;;4.28;3.65;;;;;;;2.36;62.49;97697.19;1697708;83;21475;-59
2021/11/30 09:22:01;;;;;;;3.95;3.62;;;;;;;2.34;62.97;97694.19;1707125;83;21809;-60
2021/11/30 09:24:30;;;;;;;4.35;3.52;;;;;;;2.32;62.98;97689.98;1707552;83;20962;-59
2021/11/30 09:26:57;;;;;;;4.33;3.92;;;;;;;2.32;63.02;97690.81;1714636;83;21120;-62
2021/11/30 09:29:24;;;;;;;3.10;2.90;;;;;;;2.37;62.78;97680.70;1715524;83;21471;-59
2021/11/30 09:31:53;;;;;;;3.37;3.05;;;;;;;2.36;61.76;97695.89;1714141;83;21633;-59
2021/11/30 09:34:20;;;;;;;4.35;2.65;;;;;;;2.43;60.69;97690.81;1712648;83;21565;-60
2021/11/30 09:36:48;;;;;;;2.58;2.37;;;;;;;2.42;60.31;97697.77;1705396;83;21556;-60
2021/11/30 09:39:15;;;;;;;;;;;;;;;2.42;59.63;97686.55;1690960;83;21062;-61
2021/11/30 09:41:44;;;;;;;2.57;1.90;;;;;;;2.39;58.28;97684.91;1672712;83;20436;-59
2021/11/30 09:44:13;;;;;;;2.85;2.58;;;;;;;2.41;58.05;97680.96;1668847;85;21658;-58
2021/11/30 09:46:41;;;;;;;2.15;1.95;;;;;;;2.43;58.46;97688.22;1676080;83;21620;-58
2021/11/30 09:49:08;;;;;;;4.78;2.60;;;;;;;2.55;56.36;97703.76;1672016;84;21673;-58
2021/11/30 09:51:36;;;;;;;3.10;2.05;;;;;;;2.48;57.01;97688.89;1661701;85;21457;-56
2021/11/30 09:54:04;;;;;;;2.42;2.05;;;;;;;2.42;57.61;97683.50;1700205;82;21461;-56
2021/11/30 09:56:31;;;;;;;2.85;2.27;;;;;;;2.42;57.56;97667.09;1697659;82;21515;-59
2021/11/30 09:58:59;;;;;;;3.08;2.62;;;;;;;2.43;57.53;97676.55;1674273;85;21631;-58
2021/11/30 10:01:26;;;;;;;4.45;1.90;;;;;;;2.40;57.43;97670.21;1699364;83;21464;-58
2021/11/30 10:03:53;;;;;;;3.47;2.30;;;;;;;2.40;56.51;97666.32;1735098;82;23922;-58
2021/11/30 10:06:21;;;;;;;4.05;2.37;;;;;;;2.39;58.07;97676.30;1739553;81;21662;-58
2021/11/30 10:08:49;;;;;;;4.40;2.80;;;;;;;2.38;58.98;97673.33;1737464;81;21715;-58
2021/11/30 10:11:38;;;;;;;2.40;2.20;;;;;;;2.41;58.82;97681.83;1739155;81;21832;-58
2021/11/30 10:14:20;;;;;;;3.95;2.70;;;;;;;2.34;59.15;97685.11;1734711;82;21410;-59
2021/11/30 10:17:14;;;;;;;4.58;2.62;;;;;;;2.32;59.58;97687.39;1699460;83;21511;-58
2021/11/30 10:19:45;;;;;;;4.08;2.77;;;;;;;2.38;59.64;97685.00;1668222;83;21578;-56
2021/11/30 10:22:12;;;;;;;3.50;2.77;;;;;;;2.34;59.96;97689.00;1701151;82;21496;-57
2021/11/30 10:24:39;;;;;;;2.40;2.02;;;;;;;2.30;60.46;97690.04;1675692;84;21812;-59
2021/11/30 10:27:06;;;;;;;2.67;2.47;;;;;;;2.31;60.61;97696.06;1699511;83;21476;-58
2021/11/30 10:29:42;;;;;;;2.55;2.35;;;;;;;2.32;60.73;97707.67;1689783;83;21514;-59
2021/11/30 10:32:09;;;;;;;2.80;2.60;;;;;;;2.26;60.53;97707.92;1689089;84;21669;-56
2021/11/30 10:34:36;;;;;;;3.22;2.92;;;;;;;2.24;61.43;97711.47;1692204;83;21529;-58
2021/11/30 10:37:11;;;;;;;3.30;2.70;;;;;;;2.21;62.19;97718.93;1684613;84;22124;-58
2021/11/30 10:39:40;;;;;;;3.92;2.77;;;;;;;2.16;62.08;97714.37;1695423;82;20985;-59
2021/11/30 10:42:24;;;;;;;3.58;3.05;;;;;;;2.17;62.40;97721.26;1710888;83;20931;-59
2021/11/30 10:44:53;;;;;;;3.50;3.00;;;;;;;2.15;62.61;97719.18;1710145;83;21727;-59
2021/11/30 10:47:23;;;;;;;4.37;2.98;;;;;;;2.14;62.81;97716.18;1704420;83;21577;-59
2021/11/30 10:49:53;;;;;;;3.47;3.10;;;;;;;2.14;62.83;97709.70;1708752;83;21826;-58
2021/11/30 10:52:24;;;;;;;3.95;2.95;;;;;;;2.11;63.01;97715.86;1702981;83;21577;-58
2021/11/30 10:54:52;;;;;;;4.65;2.50;;;;;;;2.19;62.14;97706.94;1698340;83;21590;-58
2021/11/30 10:57:25;;;;;;;2.85;2.58;;;;;;;2.23;61.59;97694.23;1759682;80;21515;-57
2021/11/30 10:59:54;;;;;;;2.62;2.42;;;;;;;2.25;61.44;97714.47;1750688;80;21790;-58
2021/11/30 11:02:48;;;;;;;3.72;2.62;;;;;;;2.27;61.21;97691.45;1749331;80;21613;-58
2021/11/30 11:05:27;;;;;;;3.70;2.67;;;;;;;2.30;61.11;97688.74;1753910;80;20997;-58
2021/11/30 11:08:10;;;;;;;4.20;2.75;;;;;;;2.32;61.01;97702.48;1754183;80;21538;-56
2021/11/30 11:10:44;;;;;;;5.58;2.58;;;;;;;2.33;60.75;97690.36;1749865;80;21641;-56
2021/11/30 11:13:27;;;;;;;6.00;2.98;;;;;;;2.37;60.83;97704.05;1697626;81;21042;-60
2021/11/30 11:16:00;;;;;;;3.33;3.00;;;;;;;2.36;60.79;97696.72;1749242;80;21746;-56
2021/11/30 11:18:34;;;;;;;3.33;2.45;;;;;;;2.37;60.96;97709.23;1714586;82;21562;-57
2021/11/30 11:21:33;;;;;;;4.35;3.27;;;;;;;2.36;60.59;97704.50;1750768;80;21464;-56
2021/11/30 11:24:25;;;;;;;4.17;2.87;;;;;;;2.33;61.00;97706.75;1748394;80;21463;-57
2021/11/30 11:26:50;;;;;;;3.25;2.95;;;;;;;2.32;60.93;97702.48;1753594;80;21562;-57
2021/11/30 11:29:26;;;;;;;3.08;2.75;;;;;;;2.32;61.36;97697.30;1757485;80;21743;-56
2021/11/30 11:31:57;;;;;;;2.95;2.65;;;;;;;2.36;61.25;97703.67;1751950;80;21523;-56
2021/11/30 11:34:27;;;;;;;3.72;2.35;;;;;;;2.38;60.78;97701.39;1748504;80;21508;-57
2021/11/30 11:36:56;;;;;;;3.05;2.25;;;;;;;2.44;60.24;97708.08;1759066;80;21538;-59
2021/11/30 11:39:24;;;;;;;5.10;2.37;;;;;;;2.41;59.72;97696.52;1759210;80;21546;-59
2021/11/30 11:41:55;;;;;;;2.30;2.10;;;;;;;2.45;59.42;97700.24;1762307;80;21800;-55
2021/11/30 11:44:23;;;;;;;3.27;2.20;;;;;;;2.41;59.32;97707.77;1764610;80;21057;-54
2021/11/30 11:46:56;;;;;;;4.00;2.62;;;;;;;2.42;59.27;97706.01;1767915;80;21553;-55
2021/11/30 11:49:24;;;;;;;3.30;2.60;;;;;;;2.41;58.74;97703.01;1768609;80;21577;-55
2021/11/30 11:51:54;;;;;;;3.08;2.77;;;;;;;2.30;59.99;97713.38;1771298;80;21566;-54
2021/11/30 11:54:30;;;;;;;3.20;2.37;;;;;;;2.32;59.82;97712.03;1773351;79;22061;-56
2021/11/30 11:57:12;;;;;;;4.92;3.08;;;;;;;2.36;59.34;97707.56;1770519;80;21660;-55
2021/11/30 11:59:44;;;;;;;3.40;2.20;;;;;;;2.33;59.35;97725.37;1770127;80;21532;-55
2021/11/30 12:02:20;;;;;;;3.37;2.33;;;;;;;2.33;59.14;97708.51;1772492;80;21494;-55
2021/11/30 12:05:00;;;;;;;8.15;2.12;;;;;;;2.28;60.56;97733.34;1769595;80;21514;-55
2021/11/30 12:07:30;;;;;;;1.90;1.70;;;;;;;2.28;62.25;97737.23;1764093;80;21806;-55
2021/11/30 12:10:16;;;;;;;2.30;2.10;;;;;;;2.10;63.14;97731.02;1764541;80;21427;-56
2021/11/30 12:13:04;;;;;;;3.42;2.92;;;;;;;2.03;63.42;97748.16;1744516;80;21941;-56